Orange, CT

3:32 AM EDT on July 31, 2016 (GMT -0400)
Racebrook New Haven Avenue | | Change Station

Elev 217 ft 41.28 °N, 73.01 °W | Updated 10 seconds ago

Overcast
Overcast
72.7 °F
Feels Like 72.7 °F
N
1.1
Wind Variable Wind from East

Today
High -- | Low -- °F
--% Chance of Precip.
Yesterday
High -- | Low -- °F
Precip. -- in
Pressure 30.01 in
Visibility 7.0 miles
Clouds Few 900 ft
Mostly Cloudy 3000 ft
Overcast 10000 ft
Dew Point 72 °F
Humidity 97%
Rainfall 0.00 in
Snow Depth Not available.
5:46 AM 8:09 PM
Waning Crescent, 8% visible
SPECI KHVN 310706Z AUTO 06003KT 7SM FEW009 BKN030 OVC100 23/23 A3001 RMK AO2 T02330228
Pressure 30.01 in
Visibility 7.0 miles
Clouds Few 900 ft
Mostly Cloudy 3000 ft
Overcast 10000 ft
Dew Point 72 °F
Humidity 97%
Rainfall 0.00 in
Snow Depth Not available.
5:46 AM 8:09 PM
Waning Crescent, 8% visible
SPECI KHVN 310706Z AUTO 06003KT 7SM FEW009 BKN030 OVC100 23/23 A3001 RMK AO2 T02330228

10-Day Weather Forecast

Almanac

Astronomy

Jul. 31, 2016 Rise Set
Actual Time
Civil Twilight
Nautical Twilight
Astronomical Twilight
Moon
Length of Visible Light
Length of Day
Tomorrow will be .
, % of the Moon is Illuminated

Today's Extremes

State Highs State Lows

Community

WunderPhotos

Upload Photos

1,928,768 photos uploaded!

WunderBlog® & News

Nearby

Air Quality

  Air Quality AQ Index Pollutant
Not available.

Snow Depth

Station Depth Elevation

Earthquake Activity

City Distance Mag. Time & Date
Minimum magnitude displayed is 2.5.

Coastal Water Temperatures

Place Temperature

Stations

Nearby Weather Stations

Station Location Temp. Windchill Dew Point Humidity Wind Precip. Elev Updated Type
                   

Watches & Warnings

There are currently no watches in effect.